createdAt,value
2023-04-02T00:03:10.424Z,94.53
2023-04-02T00:08:21.525Z,94.69
2023-04-02T00:13:39.633Z,94.74
2023-04-02T00:18:55.842Z,94.71
2023-04-02T00:24:14.010Z,94.87
2023-04-02T00:29:19.037Z,94.99
2023-04-02T00:34:28.897Z,95.13
2023-04-02T00:39:42.158Z,95.43
2023-04-02T00:44:48.869Z,95.45
2023-04-02T00:50:18.723Z,95.50
2023-04-02T00:55:36.483Z,95.61
2023-04-02T01:00:40.824Z,95.50
2023-04-02T01:06:01.716Z,95.47
2023-04-02T01:11:24.204Z,95.67
2023-04-02T01:16:50.849Z,95.58
2023-04-02T01:22:18.341Z,95.49
2023-04-02T01:27:39.868Z,95.53
2023-04-02T01:32:43.800Z,95.50
2023-04-02T01:37:52.869Z,95.38
2023-04-02T01:43:24.982Z,95.18
2023-04-02T01:48:32.041Z,95.14
2023-04-02T01:53:35.168Z,94.98
2023-04-02T01:58:38.655Z,94.91
2023-04-02T02:03:44.270Z,94.83
2023-04-02T02:08:56.463Z,94.78
2023-04-02T02:14:06.708Z,94.75
2023-04-02T02:19:44.935Z,94.65
2023-04-02T02:24:48.967Z,94.36
2023-04-02T02:30:18.497Z,94.28
2023-04-02T02:35:54.786Z,94.34
2023-04-02T02:41:06.614Z,94.32
2023-04-02T02:46:18.248Z,94.28
2023-04-02T02:51:30.262Z,94.22
2023-04-02T02:56:41.001Z,94.22
2023-04-02T03:01:47.455Z,94.19
2023-04-02T03:06:57.687Z,94.25
2023-04-02T03:13:03.692Z,94.31
2023-04-02T03:18:43.892Z,94.29
2023-04-02T03:24:18.011Z,94.26
2023-04-02T03:29:34.349Z,94.34
2023-04-02T03:34:43.629Z,94.30
2023-04-02T03:40:10.887Z,94.36
2023-04-02T03:45:18.240Z,94.43
2023-04-02T03:50:38.679Z,94.40
2023-04-02T03:55:43.357Z,94.57
2023-04-02T04:01:24.380Z,94.89
2023-04-02T04:06:32.892Z,95.07
2023-04-02T04:11:49.760Z,95.13
2023-04-02T04:17:14.043Z,95.21
2023-04-02T04:22:30.510Z,95.32
2023-04-02T04:28:38.650Z,95.49
2023-04-02T04:33:47.497Z,95.63
2023-04-02T04:38:55.803Z,95.42
2023-04-02T04:44:14.865Z,95.33
2023-04-02T04:49:34.234Z,95.33
2023-04-02T04:54:40.126Z,95.24
2023-04-02T05:00:02.545Z,95.24
2023-04-02T05:05:26.461Z,95.18
2023-04-02T05:10:44.202Z,95.15
2023-04-02T05:16:23.312Z,94.86
2023-04-02T05:21:49.041Z,94.60
2023-04-02T05:26:57.092Z,94.50
2023-04-02T05:32:23.392Z,94.01
2023-04-02T05:37:30.520Z,94.06
2023-04-02T05:42:38.030Z,94.07
2023-04-02T05:47:44.728Z,93.76
2023-04-02T05:52:58.823Z,93.61
2023-04-02T06:03:47.540Z,93.53
2023-04-02T06:09:00.121Z,93.42
2023-04-02T06:14:04.945Z,93.28
2023-04-02T06:19:20.776Z,93.44
2023-04-02T06:24:27.854Z,93.53
2023-04-02T06:29:39.691Z,93.51
2023-04-02T06:34:43.423Z,93.62
2023-04-02T06:39:46.600Z,93.69
2023-04-02T06:44:52.813Z,93.61
2023-04-02T06:50:23.433Z,93.71
2023-04-02T06:56:33.852Z,93.66
2023-04-02T07:02:03.626Z,92.96
2023-04-02T07:07:06.672Z,92.90
2023-04-02T07:12:14.070Z,92.17
2023-04-02T07:17:18.808Z,92.35
2023-04-02T07:22:22.812Z,91.92
2023-04-02T07:27:26.535Z,91.86
2023-04-02T07:32:29.490Z,92.29
2023-04-02T07:37:32.505Z,92.35
2023-04-02T07:42:35.936Z,92.28
2023-04-02T07:47:39.164Z,91.72
2023-04-02T07:52:43.294Z,91.90
2023-04-02T07:57:59.737Z,91.86
2023-04-02T08:03:04.778Z,91.22
2023-04-02T08:08:08.090Z,91.25
2023-04-02T08:13:11.385Z,91.29
2023-04-02T08:18:14.574Z,90.89
2023-04-02T08:23:18.230Z,90.79
2023-04-02T08:28:22.532Z,90.67
2023-04-02T08:33:26.354Z,90.89
2023-04-02T08:38:31.817Z,90.50
2023-04-02T08:44:10.161Z,90.87
2023-04-02T08:49:18.594Z,90.36
2023-04-02T08:54:29.036Z,90.09
2023-04-02T08:59:43.571Z,90.26
2023-04-02T09:04:47.156Z,90.22
2023-04-02T09:09:51.167Z,90.20
2023-04-02T09:15:29.598Z,89.76
2023-04-02T09:20:32.713Z,89.78
2023-04-02T09:25:35.846Z,89.88
2023-04-02T09:31:22.775Z,89.43
2023-04-02T09:36:35.289Z,89.75
2023-04-02T09:41:38.722Z,89.50
2023-04-02T09:47:00.411Z,88.94
2023-04-02T09:52:30.389Z,88.69
2023-04-02T09:57:38.389Z,88.68
2023-04-02T10:02:44.035Z,88.13
2023-04-02T10:08:04.976Z,88.25
2023-04-02T10:13:23.171Z,87.99
2023-04-02T10:18:40.307Z,87.96
2023-04-02T10:23:44.079Z,86.92
2023-04-02T10:29:15.002Z,86.43
2023-04-02T10:34:58.429Z,85.83
2023-04-02T10:40:29.862Z,85.25
2023-04-02T10:46:10.187Z,84.42
2023-04-02T10:51:39.425Z,83.93
2023-04-02T10:56:50.648Z,82.88
2023-04-02T11:01:58.223Z,82.38
2023-04-02T11:07:24.722Z,81.90
2023-04-02T11:12:49.929Z,80.93
2023-04-02T11:17:53.320Z,79.27
2023-04-02T11:23:38.826Z,78.57
2023-04-02T11:29:15.968Z,77.67
2023-04-02T11:35:03.013Z,77.01
2023-04-02T11:40:13.021Z,77.30
2023-04-02T11:45:26.393Z,74.92
2023-04-02T11:50:39.856Z,73.00
2023-04-02T11:56:17.103Z,72.82
2023-04-02T12:01:40.351Z,71.71
2023-04-02T12:07:03.892Z,70.88
2023-04-02T12:12:39.008Z,70.09
2023-04-02T12:17:42.273Z,68.94
2023-04-02T12:22:53.561Z,67.99
2023-04-02T12:28:18.737Z,67.01
2023-04-02T12:33:37.151Z,67.24
2023-04-02T12:38:58.684Z,67.00
2023-04-02T12:44:04.325Z,67.68
2023-04-02T12:49:22.342Z,66.61
2023-04-02T12:54:25.720Z,66.56
2023-04-02T12:59:41.040Z,63.96
2023-04-02T13:04:50.404Z,62.83
2023-04-02T13:09:57.108Z,62.20
2023-04-02T13:15:04.814Z,62.90
2023-04-02T13:20:43.903Z,61.85
2023-04-02T13:25:46.877Z,61.78
2023-04-02T13:30:50.332Z,61.35
2023-04-02T13:35:53.722Z,61.63
2023-04-02T13:40:56.597Z,61.34
2023-04-02T13:46:01.224Z,60.29
2023-04-02T13:51:04.216Z,60.53
2023-04-02T13:56:08.753Z,60.67
2023-04-02T14:01:21.394Z,59.28
2023-04-02T14:06:28.110Z,58.44
2023-04-02T14:12:21.372Z,58.58
2023-04-02T14:18:10.724Z,57.48
2023-04-02T14:23:18.896Z,57.29
2023-04-02T14:28:43.502Z,57.15
2023-04-02T14:34:24.605Z,56.33
2023-04-02T14:39:52.372Z,56.38
2023-04-02T14:45:07.436Z,56.49
2023-04-02T14:50:40.518Z,55.02
2023-04-02T14:55:52.199Z,53.88
2023-04-02T15:01:32.562Z,53.09
2023-04-02T15:06:50.744Z,52.58
2023-04-02T15:12:28.885Z,52.56
2023-04-02T15:17:34.761Z,52.10
2023-04-02T15:22:57.067Z,51.92
2023-04-02T15:28:34.680Z,51.41
2023-04-02T15:34:05.006Z,52.41
2023-04-02T15:39:43.356Z,50.79
2023-04-02T15:45:12.744Z,50.56
2023-04-02T15:50:56.210Z,49.78
2023-04-02T15:56:13.101Z,49.03
2023-04-02T16:01:45.877Z,49.05
2023-04-02T16:07:06.586Z,48.53
2023-04-02T16:12:20.067Z,48.33
2023-04-02T16:17:36.083Z,48.69
2023-04-02T16:22:59.352Z,48.82
2023-04-02T16:28:20.165Z,47.38
2023-04-02T16:34:03.160Z,45.99
2023-04-02T16:39:18.213Z,44.97
2023-04-02T16:45:19.296Z,43.68
2023-04-02T16:51:10.975Z,42.96
2023-04-02T16:56:35.742Z,42.17
2023-04-02T17:02:49.807Z,43.24
2023-04-02T17:08:19.674Z,43.42
2023-04-02T17:13:53.485Z,43.60
2023-04-02T17:19:00.915Z,44.54
2023-04-02T17:24:27.165Z,45.90
2023-04-02T17:29:44.935Z,46.69
2023-04-02T17:34:48.171Z,49.96
2023-04-02T17:40:41.096Z,52.16
2023-04-02T17:46:18.153Z,54.15
2023-04-02T17:51:44.378Z,55.22
2023-04-02T17:57:41.431Z,55.82
2023-04-02T18:03:45.103Z,56.11
2023-04-02T18:09:09.933Z,56.85
2023-04-02T18:14:53.701Z,57.51
2023-04-02T18:20:51.440Z,58.37
2023-04-02T18:26:07.519Z,59.30
2023-04-02T18:31:37.637Z,59.84
2023-04-02T18:36:46.421Z,60.58
2023-04-02T18:42:46.130Z,61.17
2023-04-02T18:48:43.255Z,61.53
2023-04-02T18:53:48.953Z,62.22
2023-04-02T18:58:59.421Z,62.61
2023-04-02T19:04:16.635Z,63.08
2023-04-02T19:09:34.725Z,63.65
2023-04-02T19:14:37.929Z,64.18
2023-04-02T19:20:09.495Z,64.89
2023-04-02T19:25:39.577Z,65.50
2023-04-02T19:31:11.633Z,66.03
2023-04-02T19:36:45.489Z,66.71
2023-04-02T19:42:18.013Z,67.28
2023-04-02T19:47:24.581Z,67.86
2023-04-02T19:52:27.750Z,68.23
2023-04-02T19:57:31.194Z,68.53
2023-04-02T20:02:34.369Z,68.89
2023-04-02T20:07:37.855Z,69.27
2023-04-02T20:12:41.092Z,69.79
2023-04-02T20:17:44.053Z,69.96
2023-04-02T20:22:48.507Z,70.08
2023-04-02T20:27:51.569Z,70.22
2023-04-02T20:32:55.769Z,70.44
2023-04-02T20:37:58.812Z,70.67
2023-04-02T20:43:01.760Z,70.58
2023-04-02T20:48:05.944Z,70.79
2023-04-02T20:53:08.788Z,70.83
2023-04-02T20:58:18.027Z,71.19
2023-04-02T21:03:20.947Z,71.25
2023-04-02T21:08:24.266Z,71.75
2023-04-02T21:13:31.201Z,71.72
2023-04-02T21:18:34.248Z,71.76
2023-04-02T21:23:37.058Z,71.50
2023-04-02T21:28:39.912Z,71.39
2023-04-02T21:33:50.571Z,71.32
2023-04-02T21:38:58.247Z,71.22
2023-04-02T21:44:05.042Z,71.71
2023-04-02T21:49:09.323Z,72.32
2023-04-02T21:54:13.400Z,72.93
2023-04-02T21:59:18.354Z,73.17
2023-04-02T22:04:24.653Z,73.52
2023-04-02T22:09:27.712Z,73.61
2023-04-02T22:14:30.897Z,73.64
2023-04-02T22:19:33.741Z,73.79
2023-04-02T22:24:36.631Z,73.74
2023-04-02T22:29:39.761Z,73.53
2023-04-02T22:34:46.075Z,73.49
2023-04-02T22:39:48.954Z,72.72
2023-04-02T22:44:51.899Z,71.44
2023-04-02T22:49:54.754Z,71.39
2023-04-02T22:54:57.630Z,71.32
2023-04-02T23:00:00.581Z,70.88
2023-04-02T23:05:05.171Z,70.43
2023-04-02T23:10:08.485Z,70.46
2023-04-02T23:15:11.894Z,70.53
2023-04-02T23:20:14.916Z,70.55
2023-04-02T23:25:17.927Z,70.33
2023-04-02T23:30:20.910Z,69.73
2023-04-02T23:35:23.868Z,69.75
2023-04-02T23:40:27.196Z,69.78
2023-04-02T23:45:30.131Z,69.89
2023-04-02T23:50:33.051Z,69.59
2023-04-02T23:55:36.151Z,69.46
